Time;durP1;ratioP1;P1;durP2;ratioP2;P2;SDS_P1;SDS_P2;PMS_P1;PMS_P2;Temp;Humidity;BMP_temperature;BMP_pressure;BME280_temperature;BME280_humidity;BME280_pressure;Samples;Min_cycle;Max_cycle;Signal;HPM_P1;HPM_P2
2021/12/25 00:01:30;;;;;;;3.72;2.38;;;1.70;99.90;;;;;;5085979;28;20036;-59
2021/12/25 00:03:56;;;;;;;3.88;2.67;;;1.70;99.90;;;;;;5092042;28;20036;-60
2021/12/25 00:06:23;;;;;;;3.13;2.28;;;1.70;99.90;;;;;;5091502;28;20134;-60
2021/12/25 00:08:48;;;;;;;3.55;2.65;;;1.60;99.90;;;;;;5088100;28;20149;-59
2021/12/25 00:11:14;;;;;;;2.35;1.88;;;1.60;99.90;;;;;;5093486;28;20039;-59
2021/12/25 00:13:41;;;;;;;2.35;1.65;;;1.50;99.90;;;;;;5096070;28;20039;-59
2021/12/25 00:16:07;;;;;;;2.33;1.90;;;1.60;99.90;;;;;;5094724;28;20040;-58
2021/12/25 00:18:34;;;;;;;2.17;1.75;;;1.60;99.90;;;;;;5083336;28;20036;-59
2021/12/25 00:21:00;;;;;;;2.50;2.00;;;1.50;99.90;;;;;;5080327;28;20040;-57
2021/12/25 00:23:25;;;;;;;2.45;1.58;;;1.60;99.90;;;;;;5082562;28;20090;-56
2021/12/25 00:25:58;;;;;;;3.08;2.28;;;1.60;99.90;;;;;;5081389;28;20036;-60
2021/12/25 00:28:49;;;;;;;2.55;2.00;;;1.60;99.90;;;;;;5088758;28;20056;-60
2021/12/25 00:36:10;;;;;;;2.95;2.28;;;1.70;99.90;;;;;;5084652;28;20067;-61
2021/12/25 00:38:37;;;;;;;3.75;2.50;;;1.80;99.90;;;;;;5087843;28;20089;-61
2021/12/25 00:41:04;;;;;;;3.60;2.60;;;1.80;99.90;;;;;;5088990;28;20444;-61
2021/12/25 00:43:30;;;;;;;3.05;2.17;;;1.80;99.90;;;;;;5087800;28;20097;-59
2021/12/25 00:45:55;;;;;;;2.45;1.95;;;1.70;99.90;;;;;;5079381;28;20514;-62
2021/12/25 00:48:21;;;;;;;3.28;2.42;;;1.70;99.90;;;;;;5089493;28;20461;-62
2021/12/25 00:50:47;;;;;;;4.50;3.45;;;1.70;99.90;;;;;;5084339;28;20040;-59
2021/12/25 00:53:13;;;;;;;3.67;2.67;;;1.60;99.90;;;;;;5087471;28;20047;-59
2021/12/25 00:55:39;;;;;;;5.05;3.97;;;1.70;99.90;;;;;;5081780;28;20681;-63
2021/12/25 00:58:04;;;;;;;3.28;2.85;;;1.60;99.90;;;;;;5087684;28;20040;-62
2021/12/25 01:00:30;;;;;;;3.75;2.97;;;1.50;99.90;;;;;;5081260;28;20118;-62
2021/12/25 01:02:56;;;;;;;4.60;3.40;;;1.50;99.90;;;;;;5088767;28;20043;-59
2021/12/25 01:05:21;;;;;;;5.47;4.20;;;1.30;99.90;;;;;;5079135;28;20036;-58
2021/12/25 01:07:48;;;;;;;6.45;4.85;;;1.20;99.90;;;;;;5085337;28;20515;-60
2021/12/25 01:10:18;;;;;;;7.13;5.57;;;1.20;99.90;;;;;;5083972;28;20607;-61
2021/12/25 01:13:23;;;;;;;5.53;4.55;;;1.20;99.90;;;;;;5088241;28;20036;-60
2021/12/25 01:15:53;;;;;;;7.72;5.55;;;1.10;99.90;;;;;;5078056;28;20036;-60
2021/12/25 01:29:20;;;;;;;8.70;6.07;;;1.00;99.90;;;;;;5084694;28;20036;-61
2021/12/25 01:32:13;;;;;;;10.25;7.22;;;1.00;99.90;;;;;;5086785;28;20039;-61
2021/12/25 01:37:07;;;;;;;8.18;5.72;;;1.10;99.90;;;;;;5088057;28;20047;-61
2021/12/25 01:39:48;;;;;;;6.22;4.15;;;1.10;99.90;;;;;;5080789;28;20412;-61
2021/12/25 01:47:49;;;;;;;8.85;6.53;;;1.00;99.90;;;;;;5085369;28;20047;-61
2021/12/25 01:50:24;;;;;;;10.60;6.63;;;0.90;99.90;;;;;;5083359;28;20081;-60
2021/12/25 01:52:50;;;;;;;8.52;5.53;;;0.90;99.90;;;;;;5088487;28;20067;-60
2021/12/25 01:55:23;;;;;;;7.88;5.60;;;0.90;99.90;;;;;;5079243;28;20048;-60
2021/12/25 01:57:49;;;;;;;8.40;5.07;;;0.70;99.90;;;;;;5088155;28;20051;-61
2021/12/25 02:00:19;;;;;;;11.20;7.95;;;0.80;99.90;;;;;;5082728;28;20036;-62
2021/12/25 02:02:45;;;;;;;11.00;7.32;;;0.60;99.90;;;;;;5088712;28;20079;-63
2021/12/25 02:05:11;;;;;;;13.10;8.02;;;0.60;99.90;;;;;;5078877;28;20028;-56
2021/12/25 02:07:36;;;;;;;11.93;7.40;;;0.70;99.90;;;;;;5085801;28;20040;-58
2021/12/25 02:10:04;;;;;;;11.95;7.07;;;0.80;99.90;;;;;;5079414;28;20475;-63
2021/12/25 02:12:31;;;;;;;9.95;6.50;;;0.80;99.90;;;;;;5084411;28;20043;-62
2021/12/25 02:15:02;;;;;;;9.55;6.00;;;0.70;99.90;;;;;;5078342;28;20040;-60
2021/12/25 02:17:47;;;;;;;7.55;5.72;;;0.80;99.90;;;;;;5087253;28;20044;-62
2021/12/25 02:20:21;;;;;;;10.98;6.38;;;0.80;99.90;;;;;;5077097;28;20524;-62
2021/12/25 02:22:48;;;;;;;17.95;11.07;;;0.80;99.90;;;;;;5087658;28;20040;-61
2021/12/25 02:25:14;;;;;;;10.70;7.13;;;0.70;99.90;;;;;;5078198;28;20509;-63
2021/12/25 02:27:40;;;;;;;8.68;6.32;;;0.60;99.90;;;;;;5084236;28;20035;-61
2021/12/25 02:30:07;;;;;;;10.95;7.10;;;0.60;99.90;;;;;;5078704;28;20117;-62
2021/12/25 02:32:33;;;;;;;17.92;8.90;;;0.70;99.90;;;;;;5083246;28;20047;-62
2021/12/25 02:34:59;;;;;;;12.15;8.57;;;0.70;99.90;;;;;;5071972;28;20096;-61
2021/12/25 02:37:24;;;;;;;11.45;7.25;;;0.80;99.90;;;;;;5082566;28;20629;-61
2021/12/25 02:39:51;;;;;;;9.25;6.43;;;0.70;99.90;;;;;;5078757;28;20517;-61
2021/12/25 02:42:17;;;;;;;12.23;7.40;;;0.80;99.90;;;;;;5083337;28;20052;-60
2021/12/25 02:44:43;;;;;;;13.48;8.38;;;0.80;99.90;;;;;;5080660;28;20050;-61
2021/12/25 02:47:18;;;;;;;10.55;6.47;;;0.80;99.90;;;;;;5086366;28;20511;-58
2021/12/25 02:49:51;;;;;;;11.02;6.68;;;0.70;99.90;;;;;;5081486;28;20044;-62
2021/12/25 02:52:18;;;;;;;10.50;6.95;;;0.70;99.90;;;;;;5087517;28;20046;-63
2021/12/25 02:54:44;;;;;;;12.70;8.35;;;0.70;99.90;;;;;;5076712;28;20040;-56
2021/12/25 02:57:15;;;;;;;11.60;7.38;;;0.60;99.90;;;;;;5082604;28;20067;-60
2021/12/25 02:59:40;;;;;;;12.85;8.20;;;0.60;99.90;;;;;;5077578;28;20044;-60
2021/12/25 03:02:12;;;;;;;12.60;8.10;;;0.60;99.90;;;;;;5086044;28;20046;-61
2021/12/25 03:04:43;;;;;;;10.60;6.60;;;0.60;99.90;;;;;;5079078;28;20078;-61
2021/12/25 03:07:09;;;;;;;10.20;6.55;;;0.60;99.90;;;;;;5079500;28;20047;-60
2021/12/25 03:09:35;;;;;;;6.43;4.30;;;0.70;99.90;;;;;;5081167;28;20039;-61
2021/12/25 03:12:04;;;;;;;6.55;4.63;;;0.80;99.90;;;;;;5087488;28;20024;-61
2021/12/25 03:14:49;;;;;;;7.40;5.00;;;0.80;99.90;;;;;;5077624;28;20595;-63
2021/12/25 03:17:15;;;;;;;5.53;4.53;;;0.70;99.90;;;;;;5083675;28;20044;-62
2021/12/25 03:19:41;;;;;;;5.53;4.18;;;0.80;99.90;;;;;;5081532;28;20404;-60
2021/12/25 03:22:06;;;;;;;7.40;4.88;;;0.80;99.90;;;;;;5086339;28;20117;-62
2021/12/25 03:24:32;;;;;;;8.68;6.15;;;0.70;99.90;;;;;;5078212;28;20119;-62
2021/12/25 03:26:58;;;;;;;6.80;4.97;;;0.70;99.90;;;;;;5085029;28;20125;-62
2021/12/25 03:29:24;;;;;;;5.15;3.85;;;0.70;99.90;;;;;;5082320;28;20045;-61
2021/12/25 03:31:50;;;;;;;4.93;3.90;;;0.80;99.90;;;;;;5086229;28;20047;-62
2021/12/25 03:34:16;;;;;;;5.10;3.58;;;0.80;99.90;;;;;;5080033;28;20484;-62
2021/12/25 03:36:42;;;;;;;6.32;4.18;;;0.80;99.90;;;;;;5082760;28;20537;-63
2021/12/25 03:39:08;;;;;;;6.68;4.70;;;0.70;99.90;;;;;;5082092;28;20046;-61
2021/12/25 03:41:34;;;;;;;5.70;4.00;;;0.70;99.90;;;;;;5084324;28;20040;-63
2021/12/25 03:44:01;;;;;;;6.38;4.57;;;0.70;99.90;;;;;;5081042;28;20048;-60
2021/12/25 03:46:31;;;;;;;5.07;4.15;;;0.60;99.90;;;;;;5079369;28;20079;-62
2021/12/25 03:49:08;;;;;;;6.55;4.40;;;0.50;99.90;;;;;;5085545;28;20055;-61
2021/12/25 03:59:57;;;;;;;6.07;3.60;;;0.50;99.90;;;;;;5083715;28;20036;-61
2021/12/25 04:02:31;;;;;;;4.13;3.17;;;0.60;99.90;;;;;;5090040;28;20032;-61
2021/12/25 04:04:59;;;;;;;6.43;4.65;;;0.60;99.90;;;;;;5081344;28;20127;-62
2021/12/25 04:07:59;;;;;;;6.15;4.18;;;0.60;99.90;;;;;;5087257;28;20057;-61
2021/12/25 04:10:27;;;;;;;6.47;4.45;;;0.50;99.90;;;;;;5078450;28;20051;-61
2021/12/25 04:12:53;;;;;;;7.82;5.28;;;0.50;99.90;;;;;;5088450;28;20507;-63
2021/12/25 04:15:19;;;;;;;8.32;5.88;;;0.30;99.90;;;;;;5078961;28;20065;-60
2021/12/25 04:17:44;;;;;;;8.13;5.75;;;0.30;99.90;;;;;;5090349;28;20035;-60
2021/12/25 04:20:10;;;;;;;7.93;5.68;;;0.30;99.90;;;;;;5084481;28;20082;-61
2021/12/25 04:23:00;;;;;;;5.55;4.40;;;0.20;99.90;;;;;;5089728;28;20132;-63
2021/12/25 04:25:28;;;;;;;6.38;4.65;;;0.30;99.90;;;;;;5077074;28;20036;-63
2021/12/25 04:27:59;;;;;;;6.45;4.85;;;0.30;99.90;;;;;;5082683;28;20064;-57
2021/12/25 04:30:46;;;;;;;7.30;5.15;;;0.20;99.90;;;;;;5075256;28;20040;-61
2021/12/25 05:03:07;;;;;;;4.57;3.40;;;0.20;99.90;;;;;;5084950;28;20044;-61
2021/12/25 05:05:34;;;;;;;5.03;3.80;;;0.20;99.90;;;;;;5080015;28;20117;-61
2021/12/25 05:08:00;;;;;;;4.63;3.40;;;0.10;99.90;;;;;;5088914;28;20051;-61
2021/12/25 05:10:25;;;;;;;5.93;4.25;;;0.10;99.90;;;;;;5083952;28;20036;-58
2021/12/25 05:12:51;;;;;;;4.95;3.90;;;0.00;99.90;;;;;;5088080;28;20048;-62
2021/12/25 05:15:17;;;;;;;5.20;3.80;;;0.00;99.90;;;;;;5077533;28;20498;-61
2021/12/25 05:17:43;;;;;;;4.75;3.55;;;0.00;99.90;;;;;;5083459;28;20083;-61
2021/12/25 05:20:08;;;;;;;4.25;3.58;;;0.00;99.90;;;;;;5080168;28;20066;-62
2021/12/25 05:22:34;;;;;;;4.57;3.50;;;0.00;99.90;;;;;;5084706;28;20039;-61
2021/12/25 05:25:00;;;;;;;4.70;3.42;;;0.00;99.90;;;;;;5081713;28;20044;-58
2021/12/25 05:27:25;;;;;;;4.80;3.80;;;-0.20;99.90;;;;;;5086949;28;20040;-62
2021/12/25 05:29:51;;;;;;;5.88;4.32;;;-0.30;99.90;;;;;;5080196;28;20044;-59
2021/12/25 05:32:18;;;;;;;5.25;3.85;;;-0.40;99.90;;;;;;5082704;28;20153;-62
2021/12/25 05:34:45;;;;;;;5.45;3.83;;;-0.40;99.90;;;;;;5076334;28;20040;-61
2021/12/25 05:37:11;;;;;;;4.72;3.88;;;-0.40;99.90;;;;;;5082300;28;20043;-59
2021/12/25 05:39:38;;;;;;;5.68;4.10;;;-0.30;99.90;;;;;;5075610;28;20094;-62
2021/12/25 05:42:04;;;;;;;8.63;3.78;;;-0.40;99.90;;;;;;5083057;28;20559;-61
2021/12/25 05:44:29;;;;;;;5.47;4.15;;;-0.40;99.90;;;;;;5079130;28;20145;-61
2021/12/25 05:46:55;;;;;;;5.93;4.45;;;-0.40;99.90;;;;;;5081002;28;20430;-58
2021/12/25 05:49:21;;;;;;;7.07;4.68;;;-0.50;99.90;;;;;;5079939;28;20044;-61
2021/12/25 05:51:47;;;;;;;6.38;4.40;;;-0.50;99.90;;;;;;5076786;28;20090;-61
2021/12/25 05:54:12;;;;;;;5.18;3.90;;;-0.40;99.90;;;;;;5073187;28;20797;-63
2021/12/25 05:56:38;;;;;;;6.45;4.38;;;-0.40;99.90;;;;;;5071161;28;20036;-60
2021/12/25 05:59:04;;;;;;;6.35;4.57;;;-0.50;99.90;;;;;;5078481;28;20527;-61
2021/12/25 06:01:31;;;;;;;5.65;4.05;;;-0.40;99.90;;;;;;5072999;28;20041;-62
2021/12/25 06:03:56;;;;;;;7.13;4.70;;;-0.40;99.90;;;;;;5068415;28;20067;-61
2021/12/25 06:06:23;;;;;;;6.47;4.10;;;-0.50;99.90;;;;;;5073445;28;20509;-60
2021/12/25 06:08:48;;;;;;;5.68;4.20;;;-0.50;99.90;;;;;;5075505;28;20044;-66
2021/12/25 06:11:16;;;;;;;6.20;4.30;;;-0.40;99.90;;;;;;5076710;28;20047;-61
2021/12/25 06:13:48;;;;;;;5.85;3.78;;;-0.40;99.90;;;;;;5077105;28;20183;-60
2021/12/25 06:16:14;;;;;;;6.88;4.82;;;-0.40;99.90;;;;;;5077616;28;20158;-64
2021/12/25 06:18:40;;;;;;;4.72;3.47;;;-0.50;99.90;;;;;;5076071;28;20125;-63
2021/12/25 06:21:05;;;;;;;5.45;3.90;;;-0.50;99.90;;;;;;5082825;28;20530;-64
2021/12/25 06:23:31;;;;;;;5.10;3.80;;;-0.50;99.90;;;;;;5083576;28;20043;-62
2021/12/25 06:25:57;;;;;;;5.90;4.20;;;-0.50;99.90;;;;;;5075407;28;20047;-64
2021/12/25 06:28:22;;;;;;;4.72;3.58;;;-0.50;99.90;;;;;;5086185;28;20028;-61
2021/12/25 06:30:49;;;;;;;5.38;3.65;;;-0.50;99.90;;;;;;5076003;28;20411;-61
2021/12/25 06:33:15;;;;;;;5.75;4.07;;;-0.50;99.90;;;;;;5079741;28;20028;-62
2021/12/25 06:35:41;;;;;;;6.32;3.80;;;-0.60;99.90;;;;;;5077265;28;20471;-61
2021/12/25 06:38:07;;;;;;;5.95;4.30;;;-0.60;99.90;;;;;;5084057;28;20036;-63
2021/12/25 06:40:33;;;;;;;5.50;4.03;;;-0.60;99.90;;;;;;5078542;28;20044;-64
2021/12/25 06:42:59;;;;;;;6.45;4.35;;;-0.50;99.90;;;;;;5080257;28;20420;-62
2021/12/25 06:45:25;;;;;;;6.25;4.18;;;-0.80;99.90;;;;;;5079244;28;20040;-63
2021/12/25 06:47:50;;;;;;;5.65;4.15;;;-0.80;99.90;;;;;;5087864;28;20044;-61
2021/12/25 06:50:16;;;;;;;5.72;4.00;;;-0.80;99.90;;;;;;5081809;28;20032;-64
2021/12/25 06:52:45;;;;;;;6.57;4.35;;;-1.00;99.90;;;;;;5087349;28;20055;-67
2021/12/25 06:55:12;;;;;;;6.95;4.47;;;-1.00;99.90;;;;;;5075930;28;20060;-63
2021/12/25 06:57:45;;;;;;;8.38;4.45;;;-1.00;99.90;;;;;;5086942;28;20418;-62
2021/12/25 07:00:12;;;;;;;6.72;4.43;;;-1.00;99.90;;;;;;5077387;28;20044;-62
2021/12/25 07:02:38;;;;;;;7.28;4.78;;;-1.00;99.90;;;;;;5082226;28;20122;-64
2021/12/25 07:05:05;;;;;;;6.63;4.53;;;-1.00;99.90;;;;;;5080564;28;20099;-63
2021/12/25 07:07:30;;;;;;;8.02;5.18;;;-1.00;99.90;;;;;;5085478;28;20058;-60
2021/12/25 07:09:56;;;;;;;6.82;4.32;;;-1.00;99.90;;;;;;5082339;28;20036;-62
2021/12/25 07:12:24;;;;;;;6.93;4.03;;;-1.10;99.90;;;;;;5087612;28;20043;-57
2021/12/25 07:14:49;;;;;;;7.43;4.68;;;-1.10;99.90;;;;;;5078811;28;20067;-61
2021/12/25 07:17:15;;;;;;;8.02;4.72;;;-1.10;99.90;;;;;;5082470;28;20059;-60
2021/12/25 07:19:41;;;;;;;7.78;4.38;;;-1.10;99.90;;;;;;5081206;28;20539;-63
2021/12/25 07:22:06;;;;;;;6.55;4.40;;;-1.00;99.90;;;;;;5087668;28;20078;-61
2021/12/25 07:24:33;;;;;;;7.07;4.78;;;-1.00;99.90;;;;;;5082952;28;20067;-62
2021/12/25 07:27:03;;;;;;;8.15;4.78;;;-1.10;99.90;;;;;;5082503;28;20040;-64
2021/12/25 07:29:29;;;;;;;8.07;5.20;;;-1.20;99.90;;;;;;5086744;28;20044;-64
2021/12/25 07:31:54;;;;;;;7.03;4.63;;;-1.20;99.90;;;;;;5090364;28;20089;-61
2021/12/25 07:34:20;;;;;;;7.20;4.68;;;-1.20;99.90;;;;;;5085219;28;20067;-63
2021/12/25 07:36:46;;;;;;;6.53;4.63;;;-1.30;99.90;;;;;;5082748;28;20132;-64
2021/12/25 07:39:12;;;;;;;9.38;5.00;;;-1.20;99.90;;;;;;5085544;28;20035;-64
2021/12/25 07:41:37;;;;;;;9.57;5.97;;;-1.20;99.90;;;;;;5087434;28;20036;-61
2021/12/25 07:44:03;;;;;;;7.25;4.93;;;-1.20;99.90;;;;;;5083142;28;20143;-62
2021/12/25 07:46:29;;;;;;;10.00;5.22;;;-1.20;99.90;;;;;;5081525;28;20044;-60
2021/12/25 07:48:55;;;;;;;9.32;5.95;;;-1.30;99.90;;;;;;5087759;28;20085;-63
2021/12/25 07:51:20;;;;;;;9.98;5.72;;;-1.30;99.90;;;;;;5085589;28;20560;-62
2021/12/25 07:53:46;;;;;;;7.18;4.90;;;-1.30;99.90;;;;;;5087372;28;20063;-63
2021/12/25 07:56:13;;;;;;;8.93;5.97;;;-1.30;99.90;;;;;;5083411;28;20048;-63
2021/12/25 07:58:39;;;;;;;8.30;5.70;;;-1.40;99.90;;;;;;5090767;28;20044;-61
2021/12/25 08:01:05;;;;;;;8.20;4.65;;;-1.30;99.90;;;;;;5085044;28;20028;-61
2021/12/25 08:03:31;;;;;;;7.05;4.68;;;-1.40;99.90;;;;;;5089726;28;20051;-61
2021/12/25 08:05:57;;;;;;;6.82;4.50;;;-1.50;99.90;;;;;;5085892;28;20036;-61
2021/12/25 08:08:22;;;;;;;9.52;5.90;;;-1.40;99.90;;;;;;5088698;28;20526;-63
2021/12/25 08:10:48;;;;;;;6.75;4.72;;;-1.50;99.90;;;;;;5084319;28;20035;-62
2021/12/25 08:13:15;;;;;;;6.88;4.40;;;-1.50;99.90;;;;;;5080941;28;20103;-63
2021/12/25 08:15:41;;;;;;;7.40;5.07;;;-1.50;99.90;;;;;;5075615;28;20710;-62
2021/12/25 08:18:08;;;;;;;8.82;4.85;;;-1.70;99.90;;;;;;5091463;28;20115;-63
2021/12/25 08:20:34;;;;;;;7.22;4.90;;;-1.60;99.90;;;;;;5085467;28;20048;-63
2021/12/25 08:23:01;;;;;;;6.47;4.35;;;-1.60;99.90;;;;;;5089772;28;20047;-64
2021/12/25 08:25:27;;;;;;;6.38;3.50;;;-1.60;99.90;;;;;;5080346;28;20088;-63
2021/12/25 08:27:53;;;;;;;6.30;3.38;;;-1.60;99.90;;;;;;5088037;28;20115;-59
2021/12/25 08:30:21;;;;;;;7.03;3.95;;;-1.60;99.90;;;;;;5077639;28;20056;-63
2021/12/25 08:32:47;;;;;;;4.32;3.25;;;-1.70;99.90;;;;;;5087696;28;20036;-60
2021/12/25 08:35:15;;;;;;;7.60;3.95;;;-1.70;99.90;;;;;;5079263;28;20040;-63
2021/12/25 08:37:43;;;;;;;5.05;3.08;;;-1.70;99.90;;;;;;5089230;28;20673;-63
2021/12/25 08:40:10;;;;;;;4.18;2.80;;;-1.60;99.90;;;;;;5082317;28;20158;-62
2021/12/25 08:42:36;;;;;;;3.70;3.05;;;-1.70;99.90;;;;;;5077924;28;20052;-63
2021/12/25 08:47:33;;;;;;;4.07;2.83;;;-1.70;99.90;;;;;;5098593;28;20040;-62
2021/12/25 08:50:00;;;;;;;3.55;2.47;;;-1.80;99.90;;;;;;5100408;28;20036;-62
2021/12/25 08:52:26;;;;;;;3.92;2.70;;;-1.70;99.90;;;;;;5090870;28;20032;-61
2021/12/25 08:54:52;;;;;;;4.15;2.72;;;-1.60;99.90;;;;;;5085664;28;20044;-61
2021/12/25 08:57:20;;;;;;;3.72;2.72;;;-1.60;99.90;;;;;;5090192;28;20545;-61
2021/12/25 08:59:47;;;;;;;4.10;2.53;;;-1.70;99.90;;;;;;5085339;28;20044;-62
2021/12/25 09:02:16;;;;;;;3.88;2.60;;;-1.80;99.90;;;;;;5089127;28;20482;-63
2021/12/25 09:04:44;;;;;;;3.65;2.60;;;-1.90;99.90;;;;;;5082669;28;20052;-61
2021/12/25 09:07:11;;;;;;;2.97;1.98;;;-2.00;99.90;;;;;;5090722;28;20445;-63
2021/12/25 09:09:38;;;;;;;3.42;2.10;;;-2.10;99.90;;;;;;5084507;28;20049;-61
2021/12/25 09:12:06;;;;;;;2.13;1.73;;;-2.00;99.90;;;;;;5089782;28;20036;-61
2021/12/25 09:14:32;;;;;;;3.03;1.95;;;-2.10;99.90;;;;;;5082314;28;20137;-62
2021/12/25 09:16:57;;;;;;;3.17;2.33;;;-2.10;99.90;;;;;;5089714;28;20074;-61
2021/12/25 09:19:23;;;;;;;1.88;1.60;;;-2.10;99.90;;;;;;5084134;28;20047;-59
2021/12/25 09:21:49;;;;;;;2.53;1.83;;;-2.10;99.90;;;;;;5088680;28;20048;-59
2021/12/25 09:24:15;;;;;;;2.25;1.77;;;-2.30;99.90;;;;;;5083748;28;20047;-61
2021/12/25 09:26:42;;;;;;;2.50;1.95;;;-2.20;99.90;;;;;;5084049;28;20044;-62
2021/12/25 09:29:09;;;;;;;3.72;1.90;;;-2.40;99.90;;;;;;5083932;28;20637;-64
2021/12/25 09:31:35;;;;;;;2.88;1.92;;;-2.30;99.90;;;;;;5085559;28;20435;-59
2021/12/25 09:34:01;;;;;;;1.73;1.52;;;-2.30;99.90;;;;;;5085868;28;20036;-62
2021/12/25 09:36:30;;;;;;;4.68;1.90;;;-2.30;99.90;;;;;;5084322;28;20051;-63
2021/12/25 09:38:56;;;;;;;2.20;1.80;;;-2.30;99.90;;;;;;5089393;28;20114;-63
2021/12/25 09:41:22;;;;;;;2.97;1.90;;;-2.30;99.90;;;;;;5085342;28;20127;-62
2021/12/25 09:43:48;;;;;;;3.03;1.90;;;-2.30;99.90;;;;;;5087422;28;20122;-63
2021/12/25 09:46:16;;;;;;;1.85;1.45;;;-2.20;99.90;;;;;;5086207;28;20044;-62
2021/12/25 09:48:42;;;;;;;3.13;1.80;;;-2.20;99.90;;;;;;5092252;28;20603;-63
2021/12/25 09:51:09;;;;;;;1.77;1.20;;;-2.20;99.90;;;;;;5084811;28;20542;-62
2021/12/25 09:53:35;;;;;;;5.25;1.70;;;-2.30;99.90;;;;;;5085689;28;20499;-63
2021/12/25 09:56:02;;;;;;;3.80;1.70;;;-2.30;99.90;;;;;;5082208;28;20124;-61
2021/12/25 09:58:28;;;;;;;1.80;1.42;;;-2.30;99.90;;;;;;5088959;28;20054;-62
2021/12/25 10:00:57;;;;;;;3.88;1.98;;;-2.30;99.90;;;;;;5086202;28;20040;-62
2021/12/25 10:03:24;;;;;;;2.67;1.60;;;-2.30;99.90;;;;;;5088764;28;20412;-60
2021/12/25 10:05:51;;;;;;;3.22;1.60;;;-2.40;99.90;;;;;;5083222;28;20127;-61
2021/12/25 10:08:20;;;;;;;2.97;1.55;;;-2.40;99.90;;;;;;5089429;28;20035;-62
2021/12/25 10:10:49;;;;;;;1.98;1.40;;;-2.50;99.90;;;;;;5083466;28;20044;-64
2021/12/25 10:13:39;;;;;;;2.08;1.40;;;-2.50;99.90;;;;;;5087659;28;20523;-62
2021/12/25 10:16:28;;;;;;;2.58;1.50;;;-2.40;99.90;;;;;;5082556;28;20115;-63
2021/12/25 10:19:11;;;;;;;2.95;1.48;;;-2.50;99.90;;;;;;5087372;28;20063;-63
2021/12/25 10:21:36;;;;;;;2.70;1.60;;;-2.50;99.90;;;;;;5085118;28;20036;-62
2021/12/25 10:24:11;;;;;;;2.10;1.55;;;-2.50;99.90;;;;;;5083939;28;20077;-63
2021/12/25 10:26:38;;;;;;;5.80;1.40;;;-2.60;99.90;;;;;;5084983;28;20040;-62
2021/12/25 10:29:25;;;;;;;2.15;1.77;;;-2.70;99.90;;;;;;5080976;28;20032;-62
2021/12/25 10:31:54;;;;;;;3.90;1.60;;;-2.50;99.90;;;;;;5086163;28;20122;-64
2021/12/25 10:34:26;;;;;;;3.13;1.70;;;-2.60;99.90;;;;;;5081949;28;20104;-61
2021/12/25 10:36:52;;;;;;;2.42;1.65;;;-2.60;99.90;;;;;;5087130;28;20071;-62
2021/12/25 10:39:23;;;;;;;4.75;2.10;;;-2.50;99.90;;;;;;5084000;28;20031;-62
2021/12/25 10:42:12;;;;;;;2.13;1.45;;;-2.50;99.90;;;;;;5084760;28;20455;-62
2021/12/25 10:44:45;;;;;;;2.83;1.80;;;-2.60;99.90;;;;;;5073849;28;20550;-61
2021/12/25 10:47:20;;;;;;;4.00;2.03;;;-2.60;99.90;;;;;;5080020;28;20408;-62
2021/12/25 10:49:57;;;;;;;3.33;1.52;;;-2.50;99.90;;;;;;5085983;28;20047;-62
2021/12/25 10:52:30;;;;;;;4.18;1.80;;;-2.40;99.90;;;;;;5090348;28;20050;-62
2021/12/25 10:55:23;;;;;;;3.28;1.80;;;-2.50;99.90;;;;;;5077838;28;20043;-62
2021/12/25 10:57:57;;;;;;;5.55;2.10;;;-2.70;99.90;;;;;;5087679;28;20040;-63
2021/12/25 11:00:30;;;;;;;5.03;2.58;;;-2.70;99.90;;;;;;5078709;28;20576;-65
2021/12/25 11:03:09;;;;;;;2.50;1.90;;;-2.80;99.90;;;;;;5087082;28;20047;-62
2021/12/25 11:05:46;;;;;;;2.65;1.75;;;-2.80;99.90;;;;;;5078784;28;20083;-63
2021/12/25 11:08:19;;;;;;;3.33;2.10;;;-2.60;99.90;;;;;;5083779;28;20126;-63
2021/12/25 11:10:51;;;;;;;3.30;1.88;;;-2.50;99.90;;;;;;5082852;28;20047;-60
2021/12/25 11:13:24;;;;;;;4.78;2.15;;;-2.40;99.90;;;;;;5084866;28;20044;-64
2021/12/25 11:16:00;;;;;;;2.90;2.20;;;-2.40;99.90;;;;;;5085443;28;20415;-62
2021/12/25 11:18:26;;;;;;;2.88;1.98;;;-2.40;99.90;;;;;;5091803;28;20042;-63
2021/12/25 11:20:51;;;;;;;4.95;2.25;;;-2.50;99.90;;;;;;5080327;28;20119;-64
2021/12/25 11:23:17;;;;;;;3.40;1.80;;;-2.60;99.90;;;;;;5087426;28;20085;-62
2021/12/25 11:25:44;;;;;;;4.38;2.25;;;-2.50;99.90;;;;;;5081233;28;20036;-63
2021/12/25 11:28:12;;;;;;;6.07;2.20;;;-2.60;99.90;;;;;;5087698;28;20450;-61
2021/12/25 11:30:42;;;;;;;3.70;2.58;;;-2.60;99.90;;;;;;5081480;28;20120;-61
2021/12/25 11:33:08;;;;;;;7.05;1.90;;;-2.50;99.90;;;;;;5076794;28;20526;-64
2021/12/25 11:35:35;;;;;;;4.97;1.95;;;-2.50;99.90;;;;;;5080907;28;20114;-62
2021/12/25 11:38:03;;;;;;;2.53;1.85;;;-2.50;99.90;;;;;;5087665;28;20544;-62
2021/12/25 11:40:31;;;;;;;4.90;1.50;;;-2.50;99.90;;;;;;5080982;28;20062;-62
2021/12/25 11:42:59;;;;;;;4.18;2.13;;;-2.70;99.90;;;;;;5086251;28;20055;-61
2021/12/25 11:45:34;;;;;;;1.85;1.30;;;-2.60;99.90;;;;;;5075107;28;20062;-61
2021/12/25 11:48:12;;;;;;;3.83;1.73;;;-2.50;99.90;;;;;;5079910;28;20461;-62
2021/12/25 11:50:42;;;;;;;2.58;1.33;;;-2.40;99.90;;;;;;5078949;28;20458;-61
2021/12/25 11:53:22;;;;;;;5.38;1.50;;;-2.50;99.90;;;;;;5077888;28;20123;-63
2021/12/25 11:58:41;;;;;;;1.95;1.40;;;-2.50;99.90;;;;;;5087076;28;20431;-63
2021/12/25 12:01:48;;;;;;;2.10;1.25;;;-2.70;99.90;;;;;;5084587;28;20047;-63
2021/12/25 12:04:18;;;;;;;1.70;1.13;;;-2.70;99.90;;;;;;5074239;28;20218;-62
2021/12/25 12:06:44;;;;;;;3.72;1.40;;;-2.80;99.90;;;;;;5082345;28;20553;-62
2021/12/25 12:09:12;;;;;;;2.40;1.42;;;-2.90;99.90;;;;;;5084823;28;20032;-63
2021/12/25 12:11:40;;;;;;;3.30;1.60;;;-2.80;99.90;;;;;;5084980;28;20092;-62
2021/12/25 12:14:27;;;;;;;4.53;1.80;;;-2.80;99.90;;;;;;5086313;28;20094;-62
2021/12/25 12:16:59;;;;;;;3.78;1.70;;;-2.70;99.90;;;;;;5089811;28;20051;-62
2021/12/25 12:19:31;;;;;;;3.75;1.83;;;-2.70;99.90;;;;;;5081533;28;20162;-62
2021/12/25 12:22:41;;;;;;;3.35;1.27;;;-2.90;99.90;;;;;;5089207;28;20101;-63
2021/12/25 12:25:41;;;;;;;1.83;1.25;;;-3.00;99.90;;;;;;5079999;28;20043;-62
2021/12/25 12:28:07;;;;;;;4.82;2.25;;;-3.00;99.90;;;;;;5085832;28;20048;-61
2021/12/25 12:30:45;;;;;;;3.67;1.75;;;-2.90;99.90;;;;;;5083438;28;20056;-63
2021/12/25 12:33:19;;;;;;;4.13;1.55;;;-2.90;99.90;;;;;;5081338;28;20129;-62
2021/12/25 12:35:50;;;;;;;3.17;1.70;;;-2.90;99.90;;;;;;5084144;28;20043;-64
2021/12/25 12:38:44;;;;;;;3.95;1.58;;;-2.90;99.90;;;;;;5089890;28;20086;-65
2021/12/25 12:41:33;;;;;;;1.98;1.02;;;-2.80;99.90;;;;;;5087964;28;20040;-63
2021/12/25 12:43:59;;;;;;;2.13;1.33;;;-2.70;99.90;;;;;;5078052;28;20036;-60
2021/12/25 12:46:47;;;;;;;2.10;1.20;;;-2.70;99.90;;;;;;5080034;28;20048;-60
2021/12/25 12:49:16;;;;;;;3.33;1.10;;;-2.70;99.90;;;;;;5067764;28;20032;-62
2021/12/25 12:51:42;;;;;;;1.45;1.08;;;-2.60;99.90;;;;;;5086382;28;20040;-64
2021/12/25 12:54:08;;;;;;;4.65;1.42;;;-2.60;99.90;;;;;;5080798;28;20395;-63
2021/12/25 12:56:34;;;;;;;2.08;1.27;;;-2.50;99.90;;;;;;5086493;28;20051;-62
2021/12/25 12:59:00;;;;;;;4.63;1.35;;;-2.40;99.90;;;;;;5089182;28;20105;-63
2021/12/25 13:01:26;;;;;;;1.52;1.05;;;-2.20;99.90;;;;;;5083943;28;20053;-63
2021/12/25 13:04:00;;;;;;;2.05;1.15;;;-2.10;99.90;;;;;;5086955;28;20082;-63
2021/12/25 13:06:28;;;;;;;2.72;1.40;;;-2.00;99.90;;;;;;5085117;28;20533;-63
2021/12/25 13:08:54;;;;;;;2.63;1.35;;;-2.00;99.90;;;;;;5088106;28;20040;-62
2021/12/25 13:11:27;;;;;;;3.53;1.27;;;-2.10;99.90;;;;;;5084743;28;20388;-64
2021/12/25 13:13:57;;;;;;;2.53;1.25;;;-2.20;99.90;;;;;;5085850;28;20045;-65
2021/12/25 13:16:33;;;;;;;3.97;1.27;;;-2.00;99.90;;;;;;5083349;28;20044;-62
2021/12/25 13:19:03;;;;;;;1.83;1.13;;;-2.00;99.90;;;;;;5081186;28;20568;-63
2021/12/25 13:21:30;;;;;;;2.78;1.30;;;-2.10;99.90;;;;;;5084858;28;20052;-62
2021/12/25 13:23:58;;;;;;;3.45;1.40;;;-2.30;99.90;;;;;;5086173;28;20054;-63
2021/12/25 13:26:40;;;;;;;4.40;1.60;;;-2.40;99.90;;;;;;5079109;28;20054;-63
2021/12/25 13:29:10;;;;;;;4.10;1.20;;;-2.50;99.90;;;;;;5082545;28;20469;-63
2021/12/25 13:31:38;;;;;;;3.60;1.40;;;-2.60;99.90;;;;;;5083537;28;20044;-62
2021/12/25 13:34:11;;;;;;;2.60;1.33;;;-2.70;99.90;;;;;;5085901;28;20045;-61
2021/12/25 13:36:38;;;;;;;3.55;1.20;;;-2.60;99.90;;;;;;5084739;28;20036;-62
2021/12/25 13:39:13;;;;;;;2.95;1.10;;;-2.60;99.90;;;;;;5087464;28;20117;-64
2021/12/25 13:41:46;;;;;;;3.30;1.48;;;-2.70;99.90;;;;;;5086314;28;20036;-61
2021/12/25 13:44:30;;;;;;;3.80;1.52;;;-2.80;99.90;;;;;;5077045;28;20496;-61
2021/12/25 13:47:03;;;;;;;1.80;1.20;;;-2.80;99.90;;;;;;5087731;28;20044;-62
2021/12/25 13:49:28;;;;;;;3.95;1.58;;;-2.90;99.90;;;;;;5079596;28;20072;-62
2021/12/25 13:51:55;;;;;;;3.08;1.35;;;-2.80;99.90;;;;;;5088024;28;20137;-65
2021/12/25 13:54:21;;;;;;;7.15;1.70;;;-2.80;99.90;;;;;;5084514;28;20123;-63
2021/12/25 13:56:52;;;;;;;3.45;1.60;;;-2.80;99.90;;;;;;5086272;28;20079;-63
2021/12/25 13:59:18;;;;;;;4.65;2.55;;;-2.90;99.90;;;;;;5084433;28;20126;-63
2021/12/25 14:02:17;;;;;;;2.63;1.58;;;-2.80;99.90;;;;;;5089325;28;20073;-63
2021/12/25 14:04:45;;;;;;;2.95;1.60;;;-2.90;99.90;;;;;;5034785;22;20468;-62
2021/12/25 14:07:14;;;;;;;2.70;1.45;;;-2.90;99.90;;;;;;5042939;28;20119;-61
2021/12/25 14:10:01;;;;;;;6.45;1.83;;;-2.90;99.90;;;;;;5034838;28;20445;-62